Time;durP1;ratioP1;P1;durP2;ratioP2;P2;SDS_P1;SDS_P2;PMS_P1;PMS_P2;Temp;Humidity;BMP_temperature;BMP_pressure;BME280_temperature;BME280_humidity;BME280_pressure;Samples;Min_cycle;Max_cycle;Signal;HPM_P1;HPM_P2
2024/03/15 00:00:29;;;;;;;2.95;1.80;;;;;;;;;;7408826;19;19926;-76
2024/03/15 00:03:15;;;;;;;2.47;1.58;;;;;;;;;;7410634;19;19925;-76
2024/03/15 00:06:00;;;;;;;3.13;1.63;;;;;;;;;;7408250;19;19906;-76
2024/03/15 00:08:46;;;;;;;4.22;2.00;;;;;;;;;;7411111;19;21119;-76
2024/03/15 00:11:35;;;;;;;5.97;2.58;;;;;;;;;;7410513;19;19937;-76
2024/03/15 00:14:21;;;;;;;4.95;2.38;;;;;;;;;;7410243;19;19924;-76
2024/03/15 00:17:08;;;;;;;6.60;2.42;;;;;;;;;;7406717;19;19922;-76
2024/03/15 00:19:52;;;;;;;6.07;2.22;;;;;;;;;;7410960;19;19914;-76
2024/03/15 00:22:39;;;;;;;4.40;2.00;;;;;;;;;;7410243;19;19922;-76
2024/03/15 00:25:26;;;;;;;3.35;1.90;;;;;;;;;;7406969;19;19910;-76
2024/03/15 00:28:10;;;;;;;3.40;1.92;;;;;;;;;;7409822;19;20385;-76
2024/03/15 00:30:55;;;;;;;4.80;2.00;;;;;;;;;;7409561;19;19970;-78
2024/03/15 00:33:44;;;;;;;5.15;1.80;;;;;;;;;;7407799;19;19986;-78
2024/03/15 00:36:31;;;;;;;5.15;2.10;;;;;;;;;;7410301;19;19931;-77
2024/03/15 00:39:20;;;;;;;4.45;1.80;;;;;;;;;;7411757;19;19925;-77
2024/03/15 00:42:04;;;;;;;3.42;1.60;;;;;;;;;;7409634;19;20344;-77
2024/03/15 00:44:51;;;;;;;4.10;1.90;;;;;;;;;;7407519;19;19918;-77
2024/03/15 00:47:35;;;;;;;3.15;1.70;;;;;;;;;;7409877;19;19937;-77
2024/03/15 00:50:27;;;;;;;3.35;2.00;;;;;;;;;;7410328;19;19906;-77
2024/03/15 00:53:16;;;;;;;6.38;1.73;;;;;;;;;;7412123;19;20269;-77
2024/03/15 00:56:00;;;;;;;9.13;1.95;;;;;;;;;;7406162;19;20003;-78
2024/03/15 00:58:47;;;;;;;3.55;1.88;;;;;;;;;;7409437;19;19932;-78
2024/03/15 01:01:31;;;;;;;2.40;1.70;;;;;;;;;;7408888;19;20330;-78
2024/03/15 01:04:16;;;;;;;2.25;1.33;;;;;;;;;;7409676;19;19910;-78
2024/03/15 01:07:06;;;;;;;7.30;1.58;;;;;;;;;;7408285;19;19930;-78
2024/03/15 01:09:50;;;;;;;2.47;1.92;;;;;;;;;;7410412;19;20338;-78
2024/03/15 01:12:37;;;;;;;2.60;1.77;;;;;;;;;;7410961;19;19910;-78
2024/03/15 01:15:21;;;;;;;4.05;1.95;;;;;;;;;;7409574;19;20333;-78
2024/03/15 01:18:10;;;;;;;3.22;1.52;;;;;;;;;;7408169;19;19923;-78
2024/03/15 01:20:56;;;;;;;4.47;2.22;;;;;;;;;;7409297;19;19918;-78
2024/03/15 01:23:46;;;;;;;4.40;2.28;;;;;;;;;;7409485;19;19946;-78
2024/03/15 01:26:30;;;;;;;7.93;1.85;;;;;;;;;;7408118;19;19922;-78
2024/03/15 01:29:16;;;;;;;3.35;1.80;;;;;;;;;;7409460;19;19919;-78
2024/03/15 01:32:01;;;;;;;3.83;1.77;;;;;;;;;;7409443;19;20260;-78
2024/03/15 01:34:50;;;;;;;5.68;2.13;;;;;;;;;;7409508;19;19922;-78
2024/03/15 01:37:38;;;;;;;3.08;1.73;;;;;;;;;;7406876;19;19934;-78
2024/03/15 01:40:25;;;;;;;3.90;1.90;;;;;;;;;;7407278;19;19918;-78
2024/03/15 01:43:12;;;;;;;3.70;1.92;;;;;;;;;;7409095;19;19929;-78
2024/03/15 01:45:57;;;;;;;4.30;1.60;;;;;;;;;;7409202;19;19919;-78
2024/03/15 01:48:44;;;;;;;3.15;1.67;;;;;;;;;;7408834;19;19922;-78
2024/03/15 01:51:30;;;;;;;6.35;1.98;;;;;;;;;;7410612;19;20274;-78
2024/03/15 01:54:19;;;;;;;3.17;2.10;;;;;;;;;;7408790;19;19915;-78
2024/03/15 01:57:07;;;;;;;2.40;1.80;;;;;;;;;;7407000;19;19926;-79
2024/03/15 01:59:51;;;;;;;3.25;1.73;;;;;;;;;;7408140;19;20240;-79
2024/03/15 02:02:35;;;;;;;2.35;1.60;;;;;;;;;;7408915;19;19910;-79
2024/03/15 02:05:22;;;;;;;2.67;1.55;;;;;;;;;;7407080;19;19918;-78
2024/03/15 02:08:09;;;;;;;5.70;2.00;;;;;;;;;;7404331;19;19918;-78
2024/03/15 02:10:56;;;;;;;3.95;1.60;;;;;;;;;;7406862;19;20338;-78
2024/03/15 02:13:47;;;;;;;5.07;1.92;;;;;;;;;;7409453;19;19917;-78
2024/03/15 02:16:34;;;;;;;4.10;1.70;;;;;;;;;;7407274;19;19923;-78
2024/03/15 02:19:20;;;;;;;5.63;1.55;;;;;;;;;;7409455;19;20347;-78
2024/03/15 02:22:09;;;;;;;5.38;2.00;;;;;;;;;;7409305;19;19906;-78
2024/03/15 02:24:56;;;;;;;3.22;1.98;;;;;;;;;;7407682;19;19914;-78
2024/03/15 02:27:40;;;;;;;4.63;1.63;;;;;;;;;;7406321;19;19925;-78
2024/03/15 02:30:28;;;;;;;5.93;2.05;;;;;;;;;;7408785;19;19926;-78
2024/03/15 02:33:17;;;;;;;4.85;1.90;;;;;;;;;;7408444;19;19927;-78
2024/03/15 02:36:02;;;;;;;3.00;1.55;;;;;;;;;;7405927;19;19994;-78
2024/03/15 02:38:48;;;;;;;7.15;1.85;;;;;;;;;;7408034;19;19907;-78
2024/03/15 02:41:35;;;;;;;4.18;2.10;;;;;;;;;;7405926;19;19918;-78
2024/03/15 02:44:19;;;;;;;2.95;1.83;;;;;;;;;;7408687;19;19919;-78
2024/03/15 02:47:03;;;;;;;3.00;1.73;;;;;;;;;;7406578;19;19911;-78
2024/03/15 02:49:50;;;;;;;4.38;1.77;;;;;;;;;;7407210;19;19917;-78
2024/03/15 02:52:37;;;;;;;2.25;1.75;;;;;;;;;;7406833;19;19954;-78
2024/03/15 02:55:27;;;;;;;3.03;1.60;;;;;;;;;;7406521;19;20245;-78
2024/03/15 02:58:13;;;;;;;3.65;1.70;;;;;;;;;;7407032;19;19934;-78
2024/03/15 03:00:58;;;;;;;2.50;1.60;;;;;;;;;;7406065;19;20365;-78
2024/03/15 03:03:45;;;;;;;5.05;1.52;;;;;;;;;;7406784;19;20344;-78
2024/03/15 03:06:31;;;;;;;2.72;1.70;;;;;;;;;;7405017;19;19910;-78
2024/03/15 03:09:17;;;;;;;3.47;1.73;;;;;;;;;;7407529;19;19918;-78
2024/03/15 03:12:09;;;;;;;2.40;1.60;;;;;;;;;;7405973;19;19923;-78
2024/03/15 03:14:58;;;;;;;3.55;1.88;;;;;;;;;;7406413;19;19926;-78
2024/03/15 03:17:45;;;;;;;8.15;1.73;;;;;;;;;;7404593;19;19915;-78
2024/03/15 03:20:32;;;;;;;6.35;1.92;;;;;;;;;;7408442;19;19955;-78
2024/03/15 03:23:19;;;;;;;3.65;1.83;;;;;;;;;;7413392;19;19922;-78
2024/03/15 03:26:06;;;;;;;3.33;1.67;;;;;;;;;;7412310;19;20314;-78
2024/03/15 03:28:56;;;;;;;4.60;1.38;;;;;;;;;;7412481;19;19919;-78
2024/03/15 03:31:43;;;;;;;2.88;1.80;;;;;;;;;;7413353;19;19929;-78
2024/03/15 03:34:29;;;;;;;5.05;1.88;;;;;;;;;;7414416;19;20416;-78
2024/03/15 03:37:18;;;;;;;5.03;2.45;;;;;;;;;;7409955;19;19923;-78
2024/03/15 03:40:06;;;;;;;3.72;1.83;;;;;;;;;;7413490;19;19914;-78
2024/03/15 03:42:52;;;;;;;3.20;1.67;;;;;;;;;;7413466;19;19915;-78
2024/03/15 03:45:43;;;;;;;3.13;1.60;;;;;;;;;;7412532;19;20291;-78
2024/03/15 03:48:29;;;;;;;3.22;1.70;;;;;;;;;;7412223;19;19918;-78
2024/03/15 03:51:13;;;;;;;3.00;1.70;;;;;;;;;;7414964;19;19914;-79
2024/03/15 03:54:00;;;;;;;2.72;1.48;;;;;;;;;;7414550;19;19906;-79
2024/03/15 03:56:47;;;;;;;3.92;1.85;;;;;;;;;;7411888;19;19999;-78
2024/03/15 03:59:36;;;;;;;3.15;1.48;;;;;;;;;;7413904;19;19915;-78
2024/03/15 04:02:28;;;;;;;3.47;1.73;;;;;;;;;;7413407;19;19923;-79
2024/03/15 04:05:13;;;;;;;5.18;1.83;;;;;;;;;;7416216;19;19918;-78
2024/03/15 04:07:59;;;;;;;2.15;1.45;;;;;;;;;;7409170;19;19915;-78
2024/03/15 04:10:48;;;;;;;3.45;1.90;;;;;;;;;;7412006;19;19926;-78
2024/03/15 04:13:37;;;;;;;2.60;1.52;;;;;;;;;;7412555;19;20254;-78
2024/03/15 04:16:21;;;;;;;3.47;1.80;;;;;;;;;;7412289;19;19914;-78
2024/03/15 04:19:11;;;;;;;3.22;1.70;;;;;;;;;;7413263;19;19922;-78
2024/03/15 04:21:55;;;;;;;4.75;1.40;;;;;;;;;;7409747;19;19922;-78
2024/03/15 04:24:43;;;;;;;3.50;2.03;;;;;;;;;;7412928;19;19914;-78
2024/03/15 04:27:30;;;;;;;6.07;2.22;;;;;;;;;;7409292;19;19923;-78
2024/03/15 04:30:18;;;;;;;4.30;2.10;;;;;;;;;;7410873;19;19935;-78
2024/03/15 04:33:06;;;;;;;3.50;2.22;;;;;;;;;;7411697;19;19934;-78
2024/03/15 04:35:55;;;;;;;3.03;1.40;;;;;;;;;;7409670;19;20616;-78
2024/03/15 04:38:41;;;;;;;2.42;1.65;;;;;;;;;;7409837;19;19935;-78
2024/03/15 04:41:28;;;;;;;6.60;1.98;;;;;;;;;;7410540;19;20262;-78
2024/03/15 04:44:14;;;;;;;3.60;1.80;;;;;;;;;;7411662;19;19926;-78
2024/03/15 04:47:01;;;;;;;3.78;1.90;;;;;;;;;;7409124;19;19922;-78
2024/03/15 04:49:45;;;;;;;4.75;1.83;;;;;;;;;;7409954;19;19933;-78
2024/03/15 04:52:33;;;;;;;3.92;2.22;;;;;;;;;;7410090;19;20330;-78
2024/03/15 04:55:18;;;;;;;2.40;1.67;;;;;;;;;;7412077;19;19934;-78
2024/03/15 04:58:05;;;;;;;8.15;2.00;;;;;;;;;;7408489;19;20227;-78
2024/03/15 05:00:49;;;;;;;4.55;2.00;;;;;;;;;;7410205;19;19918;-78
2024/03/15 05:03:38;;;;;;;2.65;1.70;;;;;;;;;;7409685;19;19934;-78
2024/03/15 05:06:25;;;;;;;2.25;1.60;;;;;;;;;;7409605;19;20000;-78
2024/03/15 05:09:14;;;;;;;2.55;1.60;;;;;;;;;;7411911;19;20250;-78
2024/03/15 05:12:05;;;;;;;3.88;1.63;;;;;;;;;;7410312;19;19932;-78
2024/03/15 05:14:49;;;;;;;2.40;1.50;;;;;;;;;;7410907;19;19914;-79
2024/03/15 05:17:33;;;;;;;3.60;1.75;;;;;;;;;;7410151;19;19942;-78
2024/03/15 05:20:22;;;;;;;2.88;1.90;;;;;;;;;;7410645;19;20325;-78
2024/03/15 05:23:07;;;;;;;2.33;1.50;;;;;;;;;;7409360;19;19918;-78
2024/03/15 05:25:54;;;;;;;3.85;1.92;;;;;;;;;;7409261;19;19917;-78
2024/03/15 05:28:42;;;;;;;4.03;1.75;;;;;;;;;;7407520;19;19934;-78
2024/03/15 05:31:29;;;;;;;2.75;1.40;;;;;;;;;;7410616;19;19978;-78
2024/03/15 05:34:16;;;;;;;3.92;1.70;;;;;;;;;;7409216;19;19921;-78
2024/03/15 05:37:01;;;;;;;2.55;1.70;;;;;;;;;;7407835;19;19910;-78
2024/03/15 05:39:48;;;;;;;3.63;1.70;;;;;;;;;;7408633;19;19921;-78
2024/03/15 05:42:37;;;;;;;2.80;1.27;;;;;;;;;;7405743;19;19914;-78
2024/03/15 05:45:21;;;;;;;2.05;1.35;;;;;;;;;;7409081;19;19922;-78
2024/03/15 05:48:10;;;;;;;4.03;2.13;;;;;;;;;;7409005;19;20421;-78
2024/03/15 05:50:56;;;;;;;2.80;1.67;;;;;;;;;;7408956;19;20263;-78
2024/03/15 05:53:47;;;;;;;2.40;1.52;;;;;;;;;;7407216;19;19923;-77
2024/03/15 05:56:33;;;;;;;3.85;1.92;;;;;;;;;;7407736;19;19910;-77
2024/03/15 05:59:22;;;;;;;3.92;1.65;;;;;;;;;;7409243;19;19931;-78
2024/03/15 06:02:09;;;;;;;2.92;1.83;;;;;;;;;;7407566;19;19914;-78
2024/03/15 06:04:53;;;;;;;2.53;1.45;;;;;;;;;;7409051;19;19926;-77
2024/03/15 06:07:37;;;;;;;2.10;1.83;;;;;;;;;;7405939;19;19925;-77
2024/03/15 06:10:25;;;;;;;4.07;1.90;;;;;;;;;;7408990;19;20278;-77
2024/03/15 06:13:09;;;;;;;2.50;1.83;;;;;;;;;;7407317;19;19914;-77
2024/03/15 06:15:56;;;;;;;2.30;1.77;;;;;;;;;;7409130;19;19926;-77
2024/03/15 06:18:43;;;;;;;3.13;1.60;;;;;;;;;;7410215;19;19930;-77
2024/03/15 06:21:29;;;;;;;4.13;2.10;;;;;;;;;;7407954;19;19918;-77
2024/03/15 06:24:15;;;;;;;3.75;2.15;;;;;;;;;;7407856;19;19925;-77
2024/03/15 06:26:59;;;;;;;3.22;2.05;;;;;;;;;;7408624;19;19915;-77
2024/03/15 06:29:45;;;;;;;5.55;2.17;;;;;;;;;;7408072;19;19934;-78
2024/03/15 06:32:36;;;;;;;3.90;2.25;;;;;;;;;;7408995;19;20329;-78
2024/03/15 06:35:27;;;;;;;3.13;1.90;;;;;;;;;;7407601;19;19933;-78
2024/03/15 06:38:27;;;;;;;4.25;2.40;;;;;;;;;;7405567;19;19928;-78
2024/03/15 06:41:19;;;;;;;4.45;2.90;;;;;;;;;;7407486;19;19922;-78
2024/03/15 06:44:19;;;;;;;5.38;2.75;;;;;;;;;;7407936;19;19910;-78
2024/03/15 06:47:18;;;;;;;6.88;3.40;;;;;;;;;;7405915;19;19910;-78
2024/03/15 06:50:30;;;;;;;;;;;;;;;;;;7406411;19;19926;-79
2024/03/15 06:53:15;;;;;;;;;;;;;;;;;;7401909;19;19938;-79
2024/03/15 06:55:59;;;;;;;6.45;3.20;;;;;;;;;;7407204;19;19951;-78
2024/03/15 06:58:44;;;;;;;7.93;3.35;;;;;;;;;;7409724;19;19926;-81
2024/03/15 07:01:31;;;;;;;5.50;2.80;;;;;;;;;;7411820;19;19922;-81
2024/03/15 07:04:17;;;;;;;5.28;3.00;;;;;;;;;;7411339;19;19914;-79
2024/03/15 07:07:04;;;;;;;3.50;2.55;;;;;;;;;;7403773;19;19923;-79
2024/03/15 07:09:49;;;;;;;4.18;2.67;;;;;;;;;;7406709;19;19919;-79
2024/03/15 07:12:39;;;;;;;7.00;2.83;;;;;;;;;;7409384;19;19915;-79
2024/03/15 07:15:23;;;;;;;5.25;3.15;;;;;;;;;;7406738;19;19923;-79
2024/03/15 07:18:11;;;;;;;3.25;2.38;;;;;;;;;;7403670;19;19922;-79
2024/03/15 07:20:57;;;;;;;5.05;2.90;;;;;;;;;;7405027;19;19926;-79
2024/03/15 07:23:46;;;;;;;8.23;3.17;;;;;;;;;;7405208;19;19907;-79
2024/03/15 07:26:31;;;;;;;6.80;2.72;;;;;;;;;;7402971;19;19911;-79
2024/03/15 07:29:17;;;;;;;4.97;2.85;;;;;;;;;;7402833;19;19990;-79
2024/03/15 07:32:02;;;;;;;9.13;3.88;;;;;;;;;;7405226;19;19919;-79
2024/03/15 07:34:47;;;;;;;6.95;3.10;;;;;;;;;;7407124;19;19922;-79
2024/03/15 07:37:36;;;;;;;;;;;;;;;;;;7407640;19;19999;-79
2024/03/15 07:40:25;;;;;;;7.32;2.90;;;;;;;;;;7405399;19;19926;-79
2024/03/15 07:43:11;;;;;;;7.63;3.80;;;;;;;;;;7402347;19;20248;-79
2024/03/15 07:45:56;;;;;;;15.27;5.90;;;;;;;;;;7403517;19;19922;-79
2024/03/15 07:48:45;;;;;;;17.05;6.35;;;;;;;;;;7405139;19;19930;-79
2024/03/15 07:51:29;;;;;;;37.85;13.73;;;;;;;;;;7406158;19;20256;-79
2024/03/15 07:54:14;;;;;;;35.63;12.07;;;;;;;;;;7406778;19;19922;-79
2024/03/15 07:57:04;;;;;;;24.05;8.40;;;;;;;;;;7402503;19;20298;-79
2024/03/15 07:59:48;;;;;;;18.90;7.15;;;;;;;;;;7407608;19;19927;-79
2024/03/15 08:02:35;;;;;;;14.32;5.60;;;;;;;;;;7405378;19;19982;-79
2024/03/15 08:05:23;;;;;;;8.25;4.68;;;;;;;;;;7403266;19;20322;-80
2024/03/15 08:08:10;;;;;;;6.47;2.30;;;;;;;;;;7413492;19;19911;-80
2024/03/15 08:10:57;;;;;;;6.80;2.83;;;;;;;;;;7410982;19;19915;-79
2024/03/15 08:13:55;;;;;;;3.45;1.85;;;;;;;;;;7408251;19;20274;-80
2024/03/15 08:16:41;;;;;;;3.65;1.70;;;;;;;;;;7410630;19;19919;-80
2024/03/15 08:19:26;;;;;;;5.03;2.42;;;;;;;;;;7412851;19;19945;-80
2024/03/15 08:22:12;;;;;;;5.80;2.30;;;;;;;;;;7411184;19;19929;-80
2024/03/15 08:24:59;;;;;;;5.18;2.40;;;;;;;;;;7411794;19;19915;-80
2024/03/15 08:27:44;;;;;;;3.10;2.03;;;;;;;;;;7412106;19;20017;-80
2024/03/15 08:30:34;;;;;;;5.60;2.05;;;;;;;;;;7416080;19;19922;-80
2024/03/15 08:33:20;;;;;;;3.08;1.83;;;;;;;;;;7412871;19;19914;-80
2024/03/15 08:36:07;;;;;;;5.93;1.77;;;;;;;;;;7412554;19;20619;-79
2024/03/15 08:38:54;;;;;;;5.53;2.03;;;;;;;;;;7413422;19;19974;-79
2024/03/15 08:41:38;;;;;;;4.25;1.80;;;;;;;;;;7412869;19;19906;-80
2024/03/15 08:44:23;;;;;;;3.15;1.63;;;;;;;;;;7410235;19;20323;-79
2024/03/15 08:47:15;;;;;;;3.80;1.75;;;;;;;;;;7411488;19;19906;-79
2024/03/15 08:50:01;;;;;;;3.47;1.90;;;;;;;;;;7412015;19;19922;-79
2024/03/15 08:52:48;;;;;;;3.95;1.48;;;;;;;;;;7412126;19;19927;-79
2024/03/15 08:55:33;;;;;;;4.65;1.60;;;;;;;;;;7409336;19;19939;-80
2024/03/15 08:58:17;;;;;;;5.47;1.88;;;;;;;;;;7413243;19;19952;-79
2024/03/15 09:01:06;;;;;;;3.38;1.85;;;;;;;;;;7409581;19;19911;-79
2024/03/15 09:03:55;;;;;;;4.97;1.92;;;;;;;;;;7408482;19;19906;-79
2024/03/15 09:06:44;;;;;;;1.95;1.60;;;;;;;;;;7408239;19;19915;-79
2024/03/15 09:09:39;;;;;;;3.00;1.70;;;;;;;;;;7417274;19;19936;-79
2024/03/15 09:12:26;;;;;;;4.00;1.58;;;;;;;;;;7418932;19;19915;-79
2024/03/15 09:15:14;;;;;;;1.90;1.33;;;;;;;;;;7415927;19;19914;-79
2024/03/15 09:18:01;;;;;;;4.05;1.77;;;;;;;;;;7414153;19;19918;-79
2024/03/15 09:20:50;;;;;;;3.25;1.70;;;;;;;;;;7418406;19;19927;-79
2024/03/15 09:23:35;;;;;;;2.85;1.40;;;;;;;;;;7418013;19;19929;-80
2024/03/15 09:26:22;;;;;;;3.28;1.50;;;;;;;;;;7410524;19;19925;-79
2024/03/15 09:29:11;;;;;;;1.92;1.23;;;;;;;;;;7410799;19;19919;-80
2024/03/15 09:32:00;;;;;;;3.25;1.67;;;;;;;;;;7409697;19;20338;-80
2024/03/15 09:34:49;;;;;;;2.78;1.30;;;;;;;;;;7413602;19;20319;-80
2024/03/15 09:37:42;;;;;;;1.75;0.98;;;;;;;;;;7410208;19;19929;-80
2024/03/15 09:40:29;;;;;;;2.53;1.50;;;;;;;;;;7410138;19;19926;-80
2024/03/15 09:43:17;;;;;;;3.78;1.70;;;;;;;;;;7410843;19;19926;-80
2024/03/15 09:46:04;;;;;;;2.95;1.35;;;;;;;;;;7411130;19;19990;-79
2024/03/15 09:48:50;;;;;;;3.47;1.40;;;;;;;;;;7412498;19;19918;-79
2024/03/15 09:51:36;;;;;;;2.33;1.35;;;;;;;;;;7411524;19;20258;-79
2024/03/15 09:54:23;;;;;;;1.90;1.17;;;;;;;;;;7413247;19;20292;-80
2024/03/15 09:57:09;;;;;;;2.38;1.42;;;;;;;;;;7411735;19;19935;-81
2024/03/15 09:59:55;;;;;;;2.03;1.20;;;;;;;;;;7413049;19;19922;-80
2024/03/15 10:02:44;;;;;;;3.20;1.73;;;;;;;;;;7412102;19;19914;-81
2024/03/15 10:05:32;;;;;;;5.47;1.40;;;;;;;;;;7410419;19;19914;-80
2024/03/15 10:08:16;;;;;;;3.03;1.60;;;;;;;;;;7411434;19;20261;-80
2024/03/15 10:11:04;;;;;;;2.83;1.48;;;;;;;;;;7409507;19;20016;-80
2024/03/15 10:13:54;;;;;;;4.82;2.33;;;;;;;;;;7411275;19;19918;-80
2024/03/15 10:16:42;;;;;;;2.45;1.50;;;;;;;;;;7408716;19;19915;-80
2024/03/15 10:19:28;;;;;;;4.88;2.58;;;;;;;;;;7410070;19;19934;-81
2024/03/15 10:22:12;;;;;;;2.72;1.73;;;;;;;;;;7409567;19;19918;-80
2024/03/15 10:24:57;;;;;;;3.50;1.90;;;;;;;;;;7410688;19;19923;-80
2024/03/15 10:27:46;;;;;;;3.00;2.17;;;;;;;;;;7410033;19;19915;-80
2024/03/15 10:30:31;;;;;;;2.78;1.70;;;;;;;;;;7410733;19;19914;-80
2024/03/15 10:33:16;;;;;;;2.15;1.25;;;;;;;;;;7410175;19;20322;-80
2024/03/15 10:36:05;;;;;;;3.13;1.67;;;;;;;;;;7408785;19;19911;-80
2024/03/15 10:38:52;;;;;;;3.80;1.80;;;;;;;;;;7410930;19;19922;-80
2024/03/15 10:41:37;;;;;;;2.97;1.80;;;;;;;;;;7410593;19;19915;-80
2024/03/15 10:44:29;;;;;;;3.13;1.70;;;;;;;;;;7409221;19;19919;-80
2024/03/15 10:47:16;;;;;;;4.22;1.38;;;;;;;;;;7408969;19;19988;-80
2024/03/15 10:50:07;;;;;;;3.95;1.58;;;;;;;;;;7410635;19;19934;-80
2024/03/15 10:52:55;;;;;;;1.85;1.33;;;;;;;;;;7410300;19;20338;-80
2024/03/15 10:55:44;;;;;;;3.92;1.67;;;;;;;;;;7408236;19;20369;-80
2024/03/15 10:58:31;;;;;;;6.00;2.30;;;;;;;;;;7407858;19;20318;-80
2024/03/15 11:01:18;;;;;;;3.83;1.45;;;;;;;;;;7407096;19;19922;-80
2024/03/15 11:04:08;;;;;;;4.32;2.22;;;;;;;;;;7410266;19;19918;-80
2024/03/15 11:06:55;;;;;;;5.70;2.13;;;;;;;;;;7407815;19;19930;-80
2024/03/15 11:09:42;;;;;;;4.55;1.90;;;;;;;;;;7409288;19;19919;-80
2024/03/15 11:12:38;;;;;;;5.63;2.25;;;;;;;;;;7408357;19;19922;-80
2024/03/15 11:15:25;;;;;;;4.43;2.15;;;;;;;;;;7407322;19;19925;-80
2024/03/15 11:18:18;;;;;;;8.43;1.80;;;;;;;;;;7408743;19;19923;-80
2024/03/15 11:21:05;;;;;;;3.92;2.03;;;;;;;;;;7408628;19;19978;-80
2024/03/15 11:23:50;;;;;;;4.22;2.17;;;;;;;;;;7409162;19;19940;-80
2024/03/15 11:26:35;;;;;;;4.18;1.88;;;;;;;;;;7407664;19;20007;-80
2024/03/15 11:29:22;;;;;;;3.63;1.88;;;;;;;;;;7409122;19;19919;-80
2024/03/15 11:32:13;;;;;;;2.67;1.80;;;;;;;;;;7407677;19;19910;-80
2024/03/15 11:35:07;;;;;;;3.88;2.10;;;;;;;;;;7408555;19;19907;-80
2024/03/15 11:37:55;;;;;;;4.05;2.08;;;;;;;;;;7407763;19;19923;-80
2024/03/15 11:40:39;;;;;;;8.45;2.33;;;;;;;;;;7409742;19;19919;-80
2024/03/15 11:43:23;;;;;;;3.22;2.30;;;;;;;;;;7413649;19;20282;-80
2024/03/15 11:46:10;;;;;;;4.78;2.17;;;;;;;;;;7413925;19;19926;-80
2024/03/15 11:48:57;;;;;;;5.38;2.22;;;;;;;;;;7414519;19;19966;-80
2024/03/15 11:51:57;;;;;;;3.63;1.83;;;;;;;;;;7413686;19;20377;-80
2024/03/15 11:54:41;;;;;;;6.43;1.77;;;;;;;;;;7415527;19;19986;-80
2024/03/15 11:57:26;;;;;;;5.10;2.08;;;;;;;;;;7410240;19;20001;-80
2024/03/15 12:00:20;;;;;;;3.88;1.80;;;;;;;;;;7415514;19;19915;-80
2024/03/15 12:03:06;;;;;;;3.15;2.05;;;;;;;;;;7411398;19;19922;-80
2024/03/15 12:05:51;;;;;;;4.45;1.75;;;;;;;;;;7413464;19;19940;-81
2024/03/15 12:08:43;;;;;;;5.20;1.90;;;;;;;;;;7414117;19;19907;-81
2024/03/15 12:11:28;;;;;;;3.80;2.03;;;;;;;;;;7413508;19;19930;-80
2024/03/15 12:14:17;;;;;;;2.80;2.10;;;;;;;;;;7409248;19;19911;-80
2024/03/15 12:17:03;;;;;;;4.30;2.38;;;;;;;;;;7411650;19;19996;-80
2024/03/15 12:19:53;;;;;;;5.78;2.40;;;;;;;;;;7413571;19;19926;-80
2024/03/15 12:22:41;;;;;;;3.72;2.20;;;;;;;;;;7413708;19;19915;-80
2024/03/15 12:25:30;;;;;;;3.78;2.72;;;;;;;;;;7412129;19;19968;-80
2024/03/15 12:28:21;;;;;;;2.95;2.00;;;;;;;;;;7413738;19;19906;-80
2024/03/15 12:31:08;;;;;;;4.28;2.33;;;;;;;;;;7415040;19;19977;-80
2024/03/15 12:33:55;;;;;;;5.50;2.10;;;;;;;;;;7412308;19;19918;-80
2024/03/15 12:36:42;;;;;;;4.93;2.10;;;;;;;;;;7414703;19;19907;-80
2024/03/15 12:39:28;;;;;;;3.78;2.00;;;;;;;;;;7413639;19;19907;-80
2024/03/15 12:42:18;;;;;;;3.83;2.17;;;;;;;;;;7413095;19;19906;-80
2024/03/15 12:45:03;;;;;;;2.70;1.70;;;;;;;;;;7412417;19;19918;-80
2024/03/15 12:47:47;;;;;;;4.35;2.08;;;;;;;;;;7409295;19;19927;-80
2024/03/15 12:50:31;;;;;;;3.83;2.05;;;;;;;;;;7412834;19;19924;-80
2024/03/15 12:53:16;;;;;;;2.53;2.15;;;;;;;;;;7411135;19;19914;-80
2024/03/15 12:56:03;;;;;;;3.42;2.13;;;;;;;;;;7411859;19;20285;-80
2024/03/15 12:58:52;;;;;;;4.63;2.42;;;;;;;;;;7407663;19;19944;-79
2024/03/15 13:01:37;;;;;;;4.68;2.67;;;;;;;;;;7409435;19;19922;-79
2024/03/15 13:04:21;;;;;;;3.75;2.10;;;;;;;;;;7411417;19;19918;-79
2024/03/15 13:07:06;;;;;;;3.83;2.45;;;;;;;;;;7409720;19;19918;-78
2024/03/15 13:09:50;;;;;;;4.47;2.30;;;;;;;;;;7410240;19;19925;-78
2024/03/15 13:12:35;;;;;;;4.63;2.17;;;;;;;;;;7410264;19;20330;-78
2024/03/15 13:15:22;;;;;;;5.93;2.88;;;;;;;;;;7409650;19;19919;-78
2024/03/15 13:18:07;;;;;;;4.72;2.42;;;;;;;;;;7407834;19;20335;-77
2024/03/15 13:20:51;;;;;;;5.00;2.60;;;;;;;;;;7410511;19;19974;-77
2024/03/15 13:23:36;;;;;;;2.75;2.08;;;;;;;;;;7408219;19;19919;-77
2024/03/15 13:26:24;;;;;;;2.38;1.90;;;;;;;;;;7408935;19;20265;-77
2024/03/15 13:29:12;;;;;;;4.40;2.13;;;;;;;;;;7409667;19;19911;-77
2024/03/15 13:31:59;;;;;;;4.20;2.00;;;;;;;;;;7408173;19;20345;-77
2024/03/15 13:34:44;;;;;;;3.85;1.83;;;;;;;;;;7409373;19;19914;-77
2024/03/15 13:37:28;;;;;;;7.07;1.85;;;;;;;;;;7406141;19;20293;-77
2024/03/15 13:40:18;;;;;;;2.70;1.60;;;;;;;;;;7408567;19;19910;-77
2024/03/15 13:43:03;;;;;;;3.15;1.60;;;;;;;;;;7408714;19;19938;-77
2024/03/15 13:45:47;;;;;;;3.28;1.50;;;;;;;;;;7407380;19;19919;-77
2024/03/15 13:48:34;;;;;;;2.70;1.45;;;;;;;;;;7405670;19;20397;-77
2024/03/15 13:51:20;;;;;;;2.25;1.60;;;;;;;;;;7408725;19;20337;-77
2024/03/15 13:54:05;;;;;;;1.67;1.40;;;;;;;;;;7408476;19;19935;-77
2024/03/15 13:56:49;;;;;;;4.70;1.83;;;;;;;;;;7407830;19;20011;-77
2024/03/15 13:59:33;;;;;;;3.03;1.50;;;;;;;;;;7407519;19;19926;-77
2024/03/15 14:02:18;;;;;;;2.08;1.40;;;;;;;;;;7408862;19;19934;-77
2024/03/15 14:05:05;;;;;;;3.10;1.50;;;;;;;;;;7403941;19;19946;-77
2024/03/15 14:07:50;;;;;;;3.85;2.20;;;;;;;;;;7405164;19;19982;-78
2024/03/15 14:10:34;;;;;;;2.10;1.60;;;;;;;;;;7407961;19;19914;-77
2024/03/15 14:13:20;;;;;;;2.08;1.30;;;;;;;;;;7407852;19;19926;-77
2024/03/15 14:16:05;;;;;;;2.20;1.35;;;;;;;;;;7407753;19;19931;-77
2024/03/15 14:18:49;;;;;;;1.65;1.15;;;;;;;;;;7409165;19;19907;-77
2024/03/15 14:21:36;;;;;;;3.92;1.50;;;;;;;;;;7408001;19;19919;-77
2024/03/15 14:24:21;;;;;;;4.03;1.20;;;;;;;;;;7406744;19;19915;-77
2024/03/15 14:27:05;;;;;;;1.92;1.27;;;;;;;;;;7406176;19;20330;-77
2024/03/15 14:29:51;;;;;;;2.70;1.52;;;;;;;;;;7406896;19;19923;-77
2024/03/15 14:32:35;;;;;;;4.05;1.30;;;;;;;;;;7406916;19;20276;-78
2024/03/15 14:35:20;;;;;;;3.55;1.50;;;;;;;;;;7407869;19;19925;-78
2024/03/15 14:38:07;;;;;;;3.78;1.83;;;;;;;;;;7405007;19;20337;-78
2024/03/15 14:40:52;;;;;;;1.83;1.25;;;;;;;;;;7408180;19;19933;-78
2024/03/15 14:43:36;;;;;;;1.85;1.08;;;;;;;;;;7406050;19;19923;-78
2024/03/15 14:46:24;;;;;;;1.80;1.15;;;;;;;;;;7406663;19;19918;-78
2024/03/15 14:49:08;;;;;;;2.13;1.05;;;;;;;;;;7407062;19;19915;-78
2024/03/15 14:51:53;;;;;;;1.95;1.00;;;;;;;;;;7406991;19;19919;-78
2024/03/15 14:54:40;;;;;;;3.97;1.17;;;;;;;;;;7405777;19;19935;-78
2024/03/15 14:57:26;;;;;;;3.10;0.95;;;;;;;;;;7405754;19;19924;-78
2024/03/15 15:00:15;;;;;;;1.92;1.10;;;;;;;;;;7406807;19;19918;-78
2024/03/15 15:02:59;;;;;;;3.35;1.13;;;;;;;;;;7406749;19;19934;-78
2024/03/15 15:05:44;;;;;;;4.88;1.25;;;;;;;;;;7404812;19;19975;-78
2024/03/15 15:08:28;;;;;;;3.17;1.27;;;;;;;;;;7405969;19;19923;-78
2024/03/15 15:11:15;;;;;;;1.75;1.02;;;;;;;;;;7406793;19;20247;-78
2024/03/15 15:14:00;;;;;;;2.55;1.00;;;;;;;;;;7406943;19;19945;-78
2024/03/15 15:16:44;;;;;;;3.65;0.85;;;;;;;;;;7410280;19;19934;-78
2024/03/15 15:19:29;;;;;;;2.58;1.00;;;;;;;;;;7413186;19;19926;-78
2024/03/15 15:22:16;;;;;;;2.03;0.90;;;;;;;;;;7413982;19;19915;-78
2024/03/15 15:25:00;;;;;;;2.45;1.02;;;;;;;;;;7412242;19;19914;-78
2024/03/15 15:27:48;;;;;;;4.32;0.88;;;;;;;;;;7410823;19;19934;-78
2024/03/15 15:30:32;;;;;;;1.35;0.70;;;;;;;;;;7413684;19;19911;-78
2024/03/15 15:33:16;;;;;;;2.35;0.60;;;;;;;;;;7412735;19;20342;-78
2024/03/15 15:36:01;;;;;;;1.42;0.80;;;;;;;;;;7412389;19;19919;-78
2024/03/15 15:38:45;;;;;;;4.32;0.90;;;;;;;;;;7411981;19;19941;-78
2024/03/15 15:41:30;;;;;;;2.63;0.90;;;;;;;;;;7412886;19;19922;-78
2024/03/15 15:44:17;;;;;;;2.58;1.10;;;;;;;;;;7411719;19;19915;-78
2024/03/15 15:47:02;;;;;;;3.60;0.88;;;;;;;;;;7410101;19;19930;-78
2024/03/15 15:49:47;;;;;;;1.27;0.75;;;;;;;;;;7411206;19;19911;-78
2024/03/15 15:52:32;;;;;;;2.75;0.88;;;;;;;;;;7412341;19;19915;-78
2024/03/15 15:55:16;;;;;;;2.25;0.85;;;;;;;;;;7411997;19;19933;-78
2024/03/15 15:58:01;;;;;;;4.10;1.08;;;;;;;;;;7408080;19;20348;-78
2024/03/15 16:00:48;;;;;;;2.60;1.05;;;;;;;;;;7412089;19;19926;-78
2024/03/15 16:03:33;;;;;;;2.42;0.90;;;;;;;;;;7411277;19;19930;-78
2024/03/15 16:06:17;;;;;;;3.25;0.73;;;;;;;;;;7408993;19;19926;-78
2024/03/15 16:09:15;;;;;;;1.60;0.60;;;;;;;;;;7412199;19;19933;-78
2024/03/15 16:12:00;;;;;;;3.13;1.05;;;;;;;;;;7413563;19;19929;-78
2024/03/15 16:14:47;;;;;;;1.95;1.00;;;;;;;;;;7409820;19;19926;-78
2024/03/15 16:17:37;;;;;;;1.58;0.80;;;;;;;;;;7408626;19;20317;-78
2024/03/15 16:20:23;;;;;;;2.75;0.90;;;;;;;;;;7411887;19;19910;-78
2024/03/15 16:23:12;;;;;;;1.98;0.68;;;;;;;;;;7410890;19;19915;-78
2024/03/15 16:25:57;;;;;;;2.33;1.10;;;;;;;;;;7408333;19;19918;-78
2024/03/15 16:28:44;;;;;;;2.47;1.00;;;;;;;;;;7408859;19;19915;-78
2024/03/15 16:31:30;;;;;;;2.63;0.85;;;;;;;;;;7411612;19;19927;-78
2024/03/15 16:34:20;;;;;;;3.33;0.90;;;;;;;;;;7408841;19;19919;-78
2024/03/15 16:37:04;;;;;;;1.38;0.77;;;;;;;;;;7411764;19;20338;-78
2024/03/15 16:39:48;;;;;;;2.60;0.80;;;;;;;;;;7411215;19;19918;-78